CheckWX is a tool to help pilots better visualize weather data.  It is not intended as a substitute for an official pre-flight weather briefing.

14:16:54 UTC

VTSC METAR
Narathiwat Airport
Thailand
Current

2 hours ago

VTSC 151200Z 29008KT 7000 -RA FEW022 SCT050 BKN090 24/23 Q1011 NOSIG
Observed
Sep-15 @ 12:00 UTC
Wind
  • 290° at 8 KTS
Visibility
7,000 meters
Flight Rules
MVFR
Conditions
Light Rain
Cloud Levels
  • Few at 2,200' AGL
  • Scattered at 5,000' AGL
  • Broken at 9,000' AGL
Temperature
24°C / 75°F
Dewpoint
23°C / 73°F
Humidity
94%
Altimeter
29.85" Hg
Pressure
1010.92 hPa
Previous

3 hours ago

VTSC 151100Z 32004KT 270V360 6000 -RA FEW005 SCT045 BKN090 24/24 Q1010 RETSRA TEMPO 4000 RA
Observed
Sep-15 @ 11:00 UTC
Wind
  • 320° at 4 KTS
Visibility
6,000 meters
Flight Rules
MVFR
Conditions
Light Rain
Cloud Levels
  • Few at 500' AGL
  • Scattered at 4,500' AGL
  • Broken at 9,000' AGL
Temperature
24°C / 75°F
Dewpoint
24°C / 75°F
Humidity
100%
Altimeter
29.82" Hg
Pressure
1009.92 hPa
Previous

4 hours ago

VTSC 151000Z 18003KT 150V230 4000 TSRA FEW006 FEW020CB SCT045 BKN080 24/24 Q1009 TEMPO 3000 TSRA
Observed
Sep-15 @ 10:00 UTC
Wind
  • 180° at 3 KTS
Visibility
4,000 meters
Flight Rules
IFR
Conditions
Thunderstorm, Rain
Cloud Levels
  • Few at 600' AGL
  • Few at 2,000' AGL
  • Scattered at 4,500' AGL
  • Broken at 8,000' AGL
Temperature
24°C / 75°F
Dewpoint
24°C / 75°F
Humidity
100%
Altimeter
29.79" Hg
Pressure
1008.92 hPa